Time;durP1;ratioP1;P1;durP2;ratioP2;P2;SDS_P1;SDS_P2;PMS_P1;PMS_P2;Temp;Humidity;BMP_temperature;BMP_pressure;BME280_temperature;BME280_humidity;BME280_pressure;Samples;Min_cycle;Max_cycle;Signal;HPM_P1;HPM_P2
2021/05/05 00:00:27;;;;;;;3.45;1.45;;;;;;;7.37;94.92;99635.00;5008363;28;20124;-81
2021/05/05 00:02:52;;;;;;;2.53;1.13;;;;;;;7.32;94.39;99636.19;5010318;28;20061;-79
2021/05/05 00:05:18;;;;;;;3.20;1.77;;;;;;;7.30;94.38;99637.22;5016261;28;20057;-80
2021/05/05 00:07:44;;;;;;;3.63;1.30;;;;;;;7.22;95.04;99635.06;5028505;28;20033;-80
2021/05/05 00:10:11;;;;;;;5.03;1.92;;;;;;;7.23;94.32;99631.44;5025790;28;20086;-79
2021/05/05 00:12:37;;;;;;;4.72;1.42;;;;;;;7.14;94.90;99621.41;5028127;28;20033;-81
2021/05/05 00:15:11;;;;;;;2.30;1.17;;;;;;;7.26;93.76;99631.25;5010532;28;20032;-81
2021/05/05 00:17:36;;;;;;;6.55;2.20;;;;;;;7.25;93.97;99634.03;5024370;28;20036;-81
2021/05/05 00:20:05;;;;;;;4.40;2.28;;;;;;;7.26;93.48;99633.06;5007543;28;20094;-80
2021/05/05 00:22:30;;;;;;;4.07;1.30;;;;;;;7.14;94.64;99632.09;5008646;28;20026;-80
2021/05/05 00:24:56;;;;;;;5.70;1.67;;;;;;;7.12;94.36;99626.00;5010459;28;20042;-81
2021/05/05 00:27:21;;;;;;;3.33;1.42;;;;;;;7.09;94.24;99623.53;5029664;28;20303;-80
2021/05/05 00:29:47;;;;;;;3.22;1.35;;;;;;;6.96;94.51;99622.66;5029508;28;20045;-81
2021/05/05 00:32:12;;;;;;;3.42;1.30;;;;;;;7.03;94.16;99629.28;5029949;28;20073;-81
2021/05/05 00:34:37;;;;;;;5.75;1.50;;;;;;;7.09;93.77;99634.22;5025447;28;20087;-81
2021/05/05 00:37:03;;;;;;;5.18;1.75;;;;;;;6.98;94.03;99631.38;5012927;28;20043;-80
2021/05/05 00:39:28;;;;;;;6.32;1.60;;;;;;;7.01;94.60;99641.00;5021501;28;20071;-82
2021/05/05 00:41:54;;;;;;;6.65;1.45;;;;;;;6.95;94.70;99631.59;5023517;28;20033;-81
2021/05/05 00:44:22;;;;;;;4.38;1.50;;;;;;;6.86;95.70;99640.22;5025953;28;20496;-80
2021/05/05 00:46:47;;;;;;;4.47;1.60;;;;;;;6.94;95.39;99637.91;5031986;28;20512;-80
2021/05/05 00:49:13;;;;;;;3.80;1.58;;;;;;;7.04;94.46;99636.31;5016146;28;20119;-79
2021/05/05 00:51:38;;;;;;;5.10;1.58;;;;;;;6.98;95.01;99631.38;5031300;28;20093;-80
2021/05/05 00:54:04;;;;;;;7.05;1.83;;;;;;;6.95;95.41;99633.41;5015350;28;20091;-82
2021/05/05 00:56:30;;;;;;;3.65;1.52;;;;;;;7.03;95.44;99637.31;5023706;28;20075;-80
2021/05/05 00:58:55;;;;;;;2.95;1.42;;;;;;;6.89;95.97;99632.03;5015589;28;20560;-81
2021/05/05 01:01:21;;;;;;;3.25;1.50;;;;;;;6.88;96.69;99633.84;5031183;28;20039;-80
2021/05/05 01:03:46;;;;;;;4.18;1.50;;;;;;;6.94;96.63;99624.56;5014954;28;20044;-80
2021/05/05 01:06:13;;;;;;;5.68;1.50;;;;;;;7.00;96.56;99621.47;5028577;28;20044;-80
2021/05/05 01:08:39;;;;;;;8.07;1.70;;;;;;;6.94;96.55;99629.91;5030128;28;20033;-79
2021/05/05 01:11:05;;;;;;;4.65;1.88;;;;;;;6.87;96.91;99628.59;5029934;28;20075;-80
2021/05/05 01:13:31;;;;;;;6.70;1.83;;;;;;;6.92;96.61;99629.13;5021411;28;20125;-80
2021/05/05 01:15:57;;;;;;;3.83;1.67;;;;;;;6.88;97.12;99622.31;5010098;28;20183;-80
2021/05/05 01:18:26;;;;;;;4.75;1.80;;;;;;;6.87;96.95;99628.59;5030656;28;20034;-79
2021/05/05 01:20:58;;;;;;;6.32;1.92;;;;;;;6.94;96.28;99629.03;5019962;28;20738;-80
2021/05/05 01:23:25;;;;;;;5.50;1.77;;;;;;;6.94;96.76;99635.22;5015347;28;20036;-79
2021/05/05 01:25:51;;;;;;;4.72;1.90;;;;;;;7.01;96.71;99643.69;5029438;28;20048;-80
2021/05/05 01:28:17;;;;;;;3.90;2.15;;;;;;;7.00;99.36;99642.81;5012685;28;20116;-82
2021/05/05 01:30:44;;;;;;;8.10;2.58;;;;;;;6.95;100.00;99631.59;5013889;28;20021;-82
2021/05/05 01:33:11;;;;;;;5.90;2.38;;;;;;;6.85;100.00;99625.19;5010851;28;20103;-80
2021/05/05 01:35:36;;;;;;;10.68;2.40;;;;;;;6.74;100.00;99617.03;5020726;28;20252;-80
2021/05/05 01:38:02;;;;;;;5.28;2.83;;;;;;;6.68;100.00;99602.28;5029244;28;20470;-83
2021/05/05 01:40:33;;;;;;;7.07;2.55;;;;;;;6.64;100.00;99603.47;5022426;28;20034;-80
2021/05/05 01:43:00;;;;;;;6.55;2.70;;;;;;;6.62;100.00;99607.16;5026469;28;20064;-80
2021/05/05 01:45:26;;;;;;;4.53;2.95;;;;;;;6.55;100.00;99598.72;5014625;28;20203;-80
2021/05/05 01:47:57;;;;;;;6.20;3.25;;;;;;;6.54;100.00;99602.34;5035231;28;20029;-80
2021/05/05 01:50:23;;;;;;;7.78;3.05;;;;;;;6.54;100.00;99598.84;5029695;28;20040;-80
2021/05/05 01:52:48;;;;;;;5.57;2.38;;;;;;;6.59;100.00;99604.72;5036231;28;20041;-80
2021/05/05 01:55:14;;;;;;;7.40;2.88;;;;;;;6.49;100.00;99597.31;5032296;28;20143;-81
2021/05/05 01:57:43;;;;;;;4.05;2.35;;;;;;;6.48;100.00;99600.91;5019558;28;20136;-81
2021/05/05 02:00:31;;;;;;;5.13;2.47;;;;;;;6.42;100.00;99588.00;5029984;28;20402;-80
2021/05/05 02:03:02;;;;;;;6.38;2.72;;;;;;;6.37;100.00;99597.25;5028388;28;20032;-81
2021/05/05 02:05:31;;;;;;;6.38;3.03;;;;;;;6.41;100.00;99588.97;5029370;28;20045;-80
2021/05/05 02:08:16;;;;;;;4.95;3.05;;;;;;;6.31;100.00;99603.84;5027481;28;20037;-80
2021/05/05 02:10:45;;;;;;;6.15;3.22;;;;;;;6.39;100.00;99601.53;5010410;28;20044;-80
2021/05/05 02:13:13;;;;;;;8.65;3.53;;;;;;;6.24;100.00;99602.50;5024513;28;20413;-80
2021/05/05 02:15:39;;;;;;;7.43;3.70;;;;;;;6.21;100.00;99605.38;5014656;28;20058;-80
2021/05/05 02:18:06;;;;;;;7.55;4.20;;;;;;;6.23;100.00;99606.16;5032256;28;20384;-80
2021/05/05 02:20:32;;;;;;;5.80;3.28;;;;;;;6.20;100.00;99602.81;5023071;28;20029;-80
2021/05/05 02:23:00;;;;;;;6.90;4.35;;;;;;;6.15;100.00;99603.13;5022533;28;20037;-81
2021/05/05 02:25:26;;;;;;;7.40;3.70;;;;;;;6.10;100.00;99605.22;5017999;28;20089;-80
2021/05/05 02:27:53;;;;;;;8.57;3.88;;;;;;;6.21;100.00;99597.41;5025890;28;20423;-79
2021/05/05 02:30:26;;;;;;;7.40;3.78;;;;;;;6.12;100.00;99608.63;5013337;28;20132;-79
2021/05/05 02:32:56;;;;;;;9.20;3.40;;;;;;;6.16;100.00;99604.84;5024896;28;20112;-80
2021/05/05 02:35:22;;;;;;;14.73;4.32;;;;;;;6.16;100.00;99603.97;5019453;28;21230;-79
2021/05/05 02:37:51;;;;;;;13.32;3.72;;;;;;;6.13;100.00;99609.47;5022576;28;20030;-80
2021/05/05 02:40:18;;;;;;;10.38;4.13;;;;;;;6.10;100.00;99605.22;5030363;28;20025;-80
2021/05/05 02:42:44;;;;;;;8.55;4.25;;;;;;;6.04;100.00;99610.94;5032725;28;20562;-80
2021/05/05 02:45:10;;;;;;;11.05;3.88;;;;;;;6.04;100.00;99609.13;5021616;28;20033;-80
2021/05/05 02:47:36;;;;;;;10.10;4.15;;;;;;;5.90;100.00;99610.94;5012606;28;20032;-80
2021/05/05 02:50:03;;;;;;;10.82;4.63;;;;;;;5.86;100.00;99607.59;5020266;28;20028;-79
2021/05/05 02:52:29;;;;;;;23.55;8.88;;;;;;;5.87;100.00;99606.66;5023884;28;20112;-79
2021/05/05 02:54:54;;;;;;;51.75;19.10;;;;;;;5.99;100.00;99613.00;5009066;28;20141;-81
2021/05/05 02:57:21;;;;;;;56.85;16.20;;;;;;;5.99;100.00;99608.53;5026169;28;20037;-80
2021/05/05 02:59:46;;;;;;;43.13;11.68;;;;;;;5.88;100.00;99611.03;5008805;28;20052;-80
2021/05/05 03:02:12;;;;;;;40.22;18.13;;;;;;;5.84;100.00;99613.97;5031536;28;20033;-80
2021/05/05 03:04:37;;;;;;;19.15;9.55;;;;;;;5.85;100.00;99610.34;5026366;28;20026;-79
2021/05/05 03:07:03;;;;;;;20.70;9.35;;;;;;;5.83;100.00;99612.25;5031590;28;20402;-80
2021/05/05 03:09:29;;;;;;;71.05;30.13;;;;;;;5.83;100.00;99612.25;5030276;28;20040;-81
2021/05/05 03:11:56;;;;;;;36.42;17.42;;;;;;;5.83;100.00;99607.78;5013498;28;20394;-81
2021/05/05 03:14:23;;;;;;;17.38;7.90;;;;;;;5.91;100.00;99607.34;5027035;28;20290;-81
2021/05/05 03:16:50;;;;;;;16.50;8.38;;;;;;;5.79;100.00;99610.72;5012192;28;20083;-80
2021/05/05 03:19:16;;;;;;;43.03;17.88;;;;;;;5.77;100.00;99609.97;5017887;28;20704;-79
2021/05/05 03:21:42;;;;;;;12.32;7.03;;;;;;;5.72;100.00;99604.06;5028581;28;20408;-80
2021/05/05 03:24:08;;;;;;;15.55;8.23;;;;;;;5.77;100.00;99609.97;5013783;28;20021;-79
2021/05/05 03:26:34;;;;;;;19.45;8.38;;;;;;;5.72;100.00;99609.41;5019637;28;20470;-80
2021/05/05 03:29:00;;;;;;;16.65;6.80;;;;;;;5.88;100.00;99605.72;5036751;28;20175;-81
2021/05/05 03:31:25;;;;;;;14.95;8.05;;;;;;;5.89;100.00;99612.75;5017583;28;20507;-80
2021/05/05 03:33:51;;;;;;;14.30;7.43;;;;;;;5.78;100.00;99614.34;5011507;28;20030;-80
2021/05/05 03:36:16;;;;;;;14.48;6.68;;;;;;;5.73;100.00;99608.47;5011666;28;20036;-80
2021/05/05 03:38:42;;;;;;;17.77;6.40;;;;;;;5.75;100.00;99609.19;5031068;28;20405;-79
2021/05/05 03:41:07;;;;;;;11.10;6.47;;;;;;;5.78;100.00;99614.34;5028638;28;20055;-80
2021/05/05 03:43:33;;;;;;;10.77;5.32;;;;;;;5.69;100.00;99613.09;5011265;28;20380;-79
2021/05/05 03:45:58;;;;;;;12.00;5.55;;;;;;;5.82;100.00;99621.19;5029343;28;20041;-79
2021/05/05 03:48:24;;;;;;;14.65;6.22;;;;;;;5.80;100.00;99620.44;5023800;28;20029;-79
2021/05/05 03:50:53;;;;;;;17.40;9.18;;;;;;;5.75;100.00;99625.16;5028757;28;20643;-79
2021/05/05 03:53:18;;;;;;;26.73;12.70;;;;;;;5.64;100.00;99623.19;5030342;28;20558;-79
2021/05/05 03:55:45;;;;;;;17.98;8.65;;;;;;;5.69;100.00;99634.41;5029909;28;20125;-79
2021/05/05 03:58:10;;;;;;;11.48;6.55;;;;;;;5.65;100.00;99636.41;5032759;28;20266;-81
2021/05/05 04:00:35;;;;;;;17.77;7.32;;;;;;;5.67;100.00;99634.50;5007902;28;20033;-80
2021/05/05 04:03:01;;;;;;;13.13;6.25;;;;;;;5.67;100.00;99639.84;5014662;28;20044;-79
2021/05/05 04:05:26;;;;;;;16.92;7.60;;;;;;;5.78;100.00;99646.28;5009792;28;20151;-80
2021/05/05 04:07:52;;;;;;;16.92;6.20;;;;;;;5.67;100.00;99639.84;5033312;28;20080;-80
2021/05/05 04:10:17;;;;;;;11.65;5.93;;;;;;;5.72;100.00;99641.34;5030895;28;20117;-81
2021/05/05 04:12:43;;;;;;;13.02;5.95;;;;;;;5.76;100.00;99649.03;5030081;28;20045;-79
2021/05/05 04:15:09;;;;;;;15.93;6.43;;;;;;;5.72;100.00;99652.84;5030379;28;20116;-79
2021/05/05 04:17:34;;;;;;;17.80;6.88;;;;;;;5.68;100.00;99656.63;5028929;28;20140;-79
2021/05/05 04:20:00;;;;;;;11.65;6.38;;;;;;;5.72;100.00;99646.66;5017530;28;20033;-79
2021/05/05 04:22:27;;;;;;;15.70;7.18;;;;;;;5.79;100.00;99642.69;5026132;28;20038;-79
2021/05/05 04:24:53;;;;;;;13.63;7.03;;;;;;;5.75;100.00;99651.78;5019158;28;20043;-78
2021/05/05 04:27:19;;;;;;;15.57;7.03;;;;;;;5.66;100.00;99654.09;5015168;28;20425;-80
2021/05/05 04:29:45;;;;;;;18.45;7.38;;;;;;;5.73;100.00;99659.91;5022593;28;20037;-80
2021/05/05 04:32:12;;;;;;;11.23;7.28;;;;;;;5.81;100.00;99656.75;5027674;28;20060;-81
2021/05/05 04:34:38;;;;;;;20.08;8.25;;;;;;;5.79;100.00;99658.66;5009700;28;20033;-78
2021/05/05 04:37:06;;;;;;;17.88;7.22;;;;;;;5.70;100.00;99660.94;5008119;28;20033;-79
2021/05/05 04:39:34;;;;;;;12.88;7.30;;;;;;;5.83;100.00;99660.19;5030425;28;20029;-80
2021/05/05 04:42:00;;;;;;;12.10;6.82;;;;;;;5.88;100.00;99674.09;5028916;28;20409;-79
2021/05/05 04:44:25;;;;;;;13.45;7.40;;;;;;;5.84;100.00;99676.06;5022770;28;20052;-79
2021/05/05 04:46:51;;;;;;;14.50;6.95;;;;;;;5.98;100.00;99680.59;5012873;28;20042;-80
2021/05/05 04:49:16;;;;;;;14.77;7.35;;;;;;;5.97;100.00;99676.19;5010494;28;20034;-80
2021/05/05 04:51:42;;;;;;;14.77;7.28;;;;;;;6.13;100.00;99679.59;5029062;28;20096;-79
2021/05/05 04:54:08;;;;;;;14.30;6.95;;;;;;;6.08;100.00;99692.38;5024945;28;20037;-81
2021/05/05 04:56:35;;;;;;;13.68;6.32;;;;;;;6.13;100.00;99692.06;5008515;28;20079;-79
2021/05/05 04:59:01;;;;;;;17.27;6.70;;;;;;;6.17;100.00;99683.81;5024366;28;20048;-81
2021/05/05 05:01:27;;;;;;;13.65;6.63;;;;;;;6.11;100.00;99692.16;5026893;28;20046;-81
2021/05/05 05:03:52;;;;;;;18.13;7.10;;;;;;;6.15;100.00;99693.69;5009732;28;20040;-80
2021/05/05 05:06:18;;;;;;;13.30;7.57;;;;;;;6.21;100.00;99698.63;5013275;28;20041;-79
2021/05/05 05:08:44;;;;;;;10.65;6.38;;;;;;;6.11;100.00;99697.47;5030191;28;20308;-80
2021/05/05 05:11:09;;;;;;;16.63;7.18;;;;;;;6.06;100.00;99700.44;5009877;28;20036;-81
2021/05/05 05:13:35;;;;;;;15.13;6.68;;;;;;;6.12;100.00;99704.53;5022990;28;20103;-79
2021/05/05 05:16:00;;;;;;;15.52;6.68;;;;;;;6.25;100.00;99707.28;5030494;28;20037;-80
2021/05/05 05:18:26;;;;;;;13.95;6.75;;;;;;;6.29;100.00;99706.16;5021354;28;20036;-79
2021/05/05 05:20:51;;;;;;;16.23;6.53;;;;;;;6.35;100.00;99701.31;5030916;28;20053;-79
2021/05/05 05:23:17;;;;;;;11.13;5.72;;;;;;;6.39;100.00;99701.97;5016489;28;20043;-80
2021/05/05 05:25:42;;;;;;;12.05;6.15;;;;;;;6.37;100.00;99710.03;5021420;28;20096;-81
2021/05/05 05:28:08;;;;;;;15.55;6.35;;;;;;;6.44;100.00;99707.84;5034245;28;20033;-80
2021/05/05 05:30:34;;;;;;;9.30;5.28;;;;;;;6.44;100.00;99710.50;5027043;28;20782;-80
2021/05/05 05:32:59;;;;;;;16.33;6.32;;;;;;;6.49;100.00;99713.72;5030045;28;20097;-79
2021/05/05 05:35:25;;;;;;;15.45;6.65;;;;;;;6.57;100.00;99721.25;5027672;28;20113;-79
2021/05/05 05:37:51;;;;;;;14.07;6.10;;;;;;;6.62;100.00;99722.66;5029998;28;20033;-80
2021/05/05 05:40:17;;;;;;;12.63;6.13;;;;;;;6.60;100.00;99726.41;5011448;28;20068;-81
2021/05/05 05:42:44;;;;;;;11.57;6.13;;;;;;;6.62;100.00;99716.47;5028675;28;20365;-79
2021/05/05 05:45:10;;;;;;;16.35;6.95;;;;;;;6.75;100.00;99720.94;5026008;28;20030;-80
2021/05/05 05:47:35;;;;;;;16.40;6.65;;;;;;;6.80;100.00;99717.97;5012562;28;20033;-79
2021/05/05 05:50:01;;;;;;;18.73;5.90;;;;;;;6.87;100.00;99721.94;5000415;28;20072;-79
2021/05/05 05:52:26;;;;;;;10.02;5.70;;;;;;;6.91;100.00;99723.47;5012632;28;20084;-82
2021/05/05 05:54:52;;;;;;;13.70;6.38;;;;;;;6.89;100.00;99734.25;5011860;28;20071;-82
2021/05/05 05:57:18;;;;;;;9.90;6.03;;;;;;;6.92;100.00;99727.81;5029372;28;20065;-80
2021/05/05 05:59:44;;;;;;;15.73;6.75;;;;;;;6.90;100.00;99725.28;5022475;28;20033;-79
2021/05/05 06:02:10;;;;;;;12.93;6.65;;;;;;;6.91;100.00;99726.97;5017898;28;20095;-79
2021/05/05 06:04:35;;;;;;;18.00;7.18;;;;;;;6.97;100.00;99736.41;5025947;28;20038;-79
2021/05/05 06:07:01;;;;;;;17.30;6.25;;;;;;;6.99;100.00;99745.16;5011551;28;20064;-80
2021/05/05 06:09:26;;;;;;;18.20;6.95;;;;;;;7.10;100.00;99739.09;5027647;28;20164;-80
2021/05/05 06:11:51;;;;;;;16.02;7.47;;;;;;;7.09;100.00;99738.28;5015667;28;20041;-80
2021/05/05 06:14:18;;;;;;;12.00;6.82;;;;;;;7.08;100.00;99739.22;5025321;28;20420;-80
2021/05/05 06:16:44;;;;;;;16.80;7.03;;;;;;;7.15;100.00;99745.88;5010829;28;20026;-78
2021/05/05 06:19:09;;;;;;;19.13;6.05;;;;;;;7.14;100.00;99748.66;5029228;28;20393;-79
2021/05/05 06:21:35;;;;;;;15.13;5.93;;;;;;;7.11;100.00;99755.03;5033518;28;20029;-81
2021/05/05 06:24:00;;;;;;;16.80;7.05;;;;;;;7.22;99.14;99757.84;5032720;28;20474;-83
2021/05/05 06:26:26;;;;;;;7.68;4.32;;;;;;;7.17;98.49;99757.28;5024046;28;20033;-80
2021/05/05 06:28:51;;;;;;;7.88;4.07;;;;;;;7.20;99.16;99765.13;5020298;28;20033;-82
2021/05/05 06:31:17;;;;;;;7.32;2.58;;;;;;;7.09;95.72;99764.97;5016297;28;20041;-80
2021/05/05 06:33:43;;;;;;;5.53;2.97;;;;;;;7.10;96.36;99766.66;5025144;28;20040;-80
2021/05/05 06:36:08;;;;;;;6.35;2.83;;;;;;;7.17;96.81;99765.28;5012219;28;20043;-79
2021/05/05 06:38:34;;;;;;;6.82;3.55;;;;;;;7.19;97.42;99773.22;5028681;28;20087;-80
2021/05/05 06:41:00;;;;;;;6.05;3.40;;;;;;;7.20;97.32;99774.94;5024613;28;20329;-80
2021/05/05 06:43:25;;;;;;;6.07;3.60;;;;;;;7.09;94.92;99775.63;5024630;28;20113;-79
2021/05/05 06:45:51;;;;;;;5.15;3.45;;;;;;;7.16;95.69;99779.59;5023046;28;20628;-80
2021/05/05 06:48:16;;;;;;;7.05;4.28;;;;;;;7.08;96.31;99781.94;5011613;28;20461;-80
2021/05/05 06:50:42;;;;;;;8.77;4.25;;;;;;;7.12;95.95;99783.44;5012025;28;20475;-81
2021/05/05 06:53:07;;;;;;;14.93;4.35;;;;;;;7.12;96.83;99791.44;5028612;28;20033;-80
2021/05/05 06:55:33;;;;;;;11.02;4.97;;;;;;;7.06;97.91;99791.81;5009272;28;20390;-80
2021/05/05 06:57:58;;;;;;;16.35;7.75;;;;;;;7.01;99.18;99793.94;5011753;28;20257;-82
2021/05/05 07:00:24;;;;;;;8.65;6.05;;;;;;;7.02;100.00;99797.47;5030495;28;20041;-79
2021/05/05 07:02:49;;;;;;;11.63;5.85;;;;;;;6.99;100.00;99801.19;5016248;28;20029;-79
2021/05/05 07:05:15;;;;;;;10.75;6.60;;;;;;;6.96;100.00;99803.19;5021199;28;20398;-80
2021/05/05 07:07:40;;;;;;;16.52;6.95;;;;;;;6.97;100.00;99811.13;5026372;28;20079;-80
2021/05/05 07:10:10;;;;;;;10.95;5.90;;;;;;;6.95;100.00;99807.69;5008469;28;20042;-84
2021/05/05 07:12:35;;;;;;;14.15;6.72;;;;;;;6.84;100.00;99804.84;5023965;28;20033;-80
2021/05/05 07:15:01;;;;;;;14.95;6.60;;;;;;;6.81;100.00;99821.03;5006042;28;20036;-84
2021/05/05 07:17:26;;;;;;;14.10;6.28;;;;;;;6.63;100.00;99816.84;4998598;28;20092;-79
2021/05/05 07:19:53;;;;;;;12.05;5.88;;;;;;;6.51;100.00;99813.13;5023450;28;20025;-83
2021/05/05 07:22:19;;;;;;;14.73;6.25;;;;;;;6.49;100.00;99826.56;5022616;28;20113;-83
2021/05/05 07:24:46;;;;;;;9.00;4.85;;;;;;;6.52;100.00;99824.66;5007947;28;20029;-82
2021/05/05 07:27:13;;;;;;;12.48;6.22;;;;;;;6.49;100.00;99826.56;5006220;28;20462;-81
2021/05/05 07:29:38;;;;;;;9.15;4.85;;;;;;;6.44;100.00;99823.31;5022237;28;20099;-82
2021/05/05 07:32:05;;;;;;;10.48;4.70;;;;;;;6.46;100.00;99831.22;5027875;28;20073;-81
2021/05/05 07:34:30;;;;;;;8.55;3.90;;;;;;;6.37;100.00;99831.78;5022025;28;20563;-82
2021/05/05 07:37:03;;;;;;;9.07;4.10;;;;;;;6.31;100.00;99827.69;5006421;28;20034;-86
2021/05/05 07:45:08;;;;;;;8.27;3.60;;;;;;;6.44;100.00;99844.63;5024060;28;20037;-84
2021/05/05 07:47:38;;;;;;;13.68;3.60;;;;;;;6.47;100.00;99847.13;5023466;28;20475;-82
2021/05/05 07:50:05;;;;;;;5.18;2.78;;;;;;;6.50;100.00;99841.59;5021810;28;20038;-83
2021/05/05 07:52:31;;;;;;;4.25;2.90;;;;;;;6.58;100.00;99850.94;5007784;28;20030;-80
2021/05/05 07:54:56;;;;;;;9.70;3.70;;;;;;;6.66;100.00;99870.00;5025287;28;20037;-80
2021/05/05 07:57:22;;;;;;;5.70;3.15;;;;;;;6.68;100.00;99862.75;5016819;28;20037;-79
2021/05/05 07:59:48;;;;;;;5.75;3.75;;;;;;;6.71;100.00;99862.56;5023956;28;20041;-80
2021/05/05 08:02:14;;;;;;;5.93;3.55;;;;;;;6.67;100.00;99875.22;5018283;28;20113;-81
2021/05/05 08:04:48;;;;;;;4.85;3.30;;;;;;;6.67;100.00;99867.22;5006327;28;20030;-81
2021/05/05 08:07:15;;;;;;;10.40;4.72;;;;;;;6.77;100.00;99871.03;5017682;28;20040;-80
2021/05/05 08:09:41;;;;;;;9.18;4.32;;;;;;;6.87;100.00;99879.31;5024309;28;20090;-81
2021/05/05 08:12:06;;;;;;;8.27;4.82;;;;;;;6.90;100.00;99880.00;5023014;28;20493;-81
2021/05/05 08:14:31;;;;;;;7.43;3.78;;;;;;;7.13;100.00;99878.53;5002124;28;20141;-80
2021/05/05 08:16:57;;;;;;;7.53;3.95;;;;;;;7.84;100.00;99877.50;5007146;28;20033;-83
2021/05/05 08:19:23;;;;;;;8.70;3.40;;;;;;;8.67;99.44;99874.44;5022693;28;20681;-81
2021/05/05 08:21:48;;;;;;;7.28;3.58;;;;;;;9.73;97.70;99872.06;5014657;28;20033;-79
2021/05/05 08:24:13;;;;;;;6.13;3.15;;;;;;;9.92;93.31;99870.69;5023216;28;20034;-81
2021/05/05 08:26:40;;;;;;;6.78;2.83;;;;;;;10.51;91.13;99875.06;5015146;28;20048;-80
2021/05/05 08:29:05;;;;;;;7.22;2.63;;;;;;;11.03;85.15;99888.94;5021382;28;20069;-78
2021/05/05 08:31:31;;;;;;;5.47;2.38;;;;;;;11.23;84.01;99889.03;5018550;28;20071;-81
2021/05/05 08:33:59;;;;;;;9.05;3.42;;;;;;;11.65;83.29;99883.84;5018377;28;20459;-88
2021/05/05 08:36:25;;;;;;;10.57;2.85;;;;;;;11.49;81.52;99894.13;5009898;28;20034;-82
2021/05/05 08:38:52;;;;;;;8.88;2.63;;;;;;;11.75;81.64;99896.44;5015938;28;20048;-79
2021/05/05 08:41:18;;;;;;;8.13;2.38;;;;;;;11.07;77.95;99899.28;5024139;28;20265;-81
2021/05/05 08:43:44;;;;;;;9.02;2.25;;;;;;;11.24;80.21;99890.75;5007751;28;20243;-79
2021/05/05 08:46:10;;;;;;;4.60;2.05;;;;;;;11.38;78.29;99902.22;5011714;28;20041;-79
2021/05/05 08:48:36;;;;;;;9.90;2.53;;;;;;;11.53;79.43;99911.75;5024433;28;20478;-81
2021/05/05 08:51:08;;;;;;;9.30;3.17;;;;;;;11.31;77.08;99918.81;5029130;28;20035;-81
2021/05/05 08:53:34;;;;;;;13.32;3.08;;;;;;;11.66;76.18;99916.00;5002165;28;20030;-82
2021/05/05 08:56:00;;;;;;;10.13;2.90;;;;;;;11.33;76.47;99919.56;5011910;28;20476;-81
2021/05/05 08:58:27;;;;;;;8.23;3.20;;;;;;;10.94;76.40;99909.28;5019997;28;21268;-82
2021/05/05 09:00:52;;;;;;;11.20;3.10;;;;;;;10.32;79.28;99915.00;5012663;28;20520;-80
2021/05/05 09:03:28;;;;;;;10.98;3.42;;;;;;;10.16;79.57;99930.53;5005812;28;20045;-81
2021/05/05 09:05:58;;;;;;;6.60;3.53;;;;;;;10.06;80.40;99918.78;4999011;28;20044;-82
2021/05/05 09:08:24;;;;;;;11.25;3.63;;;;;;;9.95;80.41;99918.72;5004927;28;20029;-81
2021/05/05 09:11:01;;;;;;;10.20;3.90;;;;;;;9.89;80.60;99928.06;5015818;28;20038;-80
2021/05/05 09:13:49;;;;;;;9.65;3.15;;;;;;;10.02;81.37;99936.06;5021958;28;20029;-80
2021/05/05 09:16:18;;;;;;;11.95;3.65;;;;;;;10.16;79.86;99933.19;5011499;28;20025;-85
2021/05/05 09:19:00;;;;;;;10.10;3.40;;;;;;;10.39;80.69;99929.66;5015950;28;20111;-80
2021/05/05 09:21:49;;;;;;;8.05;3.15;;;;;;;10.25;76.33;99943.25;5012481;28;20030;-80
2021/05/05 09:24:30;;;;;;;17.25;3.92;;;;;;;10.32;78.24;99946.34;5021718;28;20040;-80
2021/05/05 09:27:07;;;;;;;11.75;3.05;;;;;;;10.34;77.10;99947.09;5026509;28;20541;-81
2021/05/05 09:29:42;;;;;;;8.88;3.03;;;;;;;10.79;76.34;99940.88;5017153;28;20037;-81
2021/05/05 09:32:09;;;;;;;8.13;3.05;;;;;;;10.86;78.11;99946.63;5029663;28;20124;-81
2021/05/05 09:34:35;;;;;;;8.90;2.75;;;;;;;11.07;75.02;99942.25;5019771;28;20530;-80
2021/05/05 09:37:05;;;;;;;8.50;2.72;;;;;;;11.14;74.85;99956.91;5023428;28;20037;-83
2021/05/05 09:39:33;;;;;;;14.38;3.83;;;;;;;11.07;74.87;99944.94;5038949;28;20045;-82
2021/05/05 09:42:00;;;;;;;10.13;2.53;;;;;;;10.82;74.95;99961.25;5011712;28;20125;-81
2021/05/05 09:44:27;;;;;;;8.65;2.88;;;;;;;10.71;74.07;99977.34;5027706;28;20045;-82
2021/05/05 09:46:59;;;;;;;6.78;3.30;;;;;;;10.74;76.42;99966.38;5025581;28;20124;-82
2021/05/05 09:49:31;;;;;;;10.77;3.38;;;;;;;11.01;75.71;99985.72;5009541;28;20053;-84
2021/05/05 09:51:59;;;;;;;10.75;3.03;;;;;;;10.79;72.51;99965.06;5022723;28;20060;-78
2021/05/05 09:54:29;;;;;;;8.88;2.40;;;;;;;10.47;73.00;99969.34;5019636;28;20034;-81
2021/05/05 09:57:12;;;;;;;7.05;2.50;;;;;;;10.50;72.66;99991.41;5024904;28;20060;-81
2021/05/05 10:00:00;;;;;;;7.82;3.13;;;;;;;10.52;74.12;99977.88;5026030;28;20062;-82
2021/05/05 10:02:29;;;;;;;4.60;2.35;;;;;;;10.14;73.34;99978.03;5024575;28;20025;-81
2021/05/05 10:04:58;;;;;;;10.25;2.88;;;;;;;10.06;74.95;99992.00;5001959;28;20630;-82
2021/05/05 10:07:23;;;;;;;7.68;2.55;;;;;;;10.13;73.89;99982.53;5008455;28;20957;-79
2021/05/05 10:09:49;;;;;;;8.75;2.17;;;;;;;9.93;72.27;100001.09;5027050;28;20120;-81
2021/05/05 10:12:19;;;;;;;14.13;2.88;;;;;;;9.89;72.02;100010.28;5028410;28;20086;-79
2021/05/05 10:14:45;;;;;;;11.15;2.67;;;;;;;9.97;72.27;100002.56;5027508;28;20065;-81
2021/05/05 10:17:12;;;;;;;14.40;3.03;;;;;;;10.14;71.96;100007.53;5003018;28;20041;-81
2021/05/05 10:19:39;;;;;;;13.63;3.15;;;;;;;10.60;72.95;100012.19;5009576;28;20091;-81
2021/05/05 10:22:06;;;;;;;14.63;3.13;;;;;;;11.04;73.35;100014.16;5019793;28;20516;-80
2021/05/05 10:24:35;;;;;;;15.75;3.63;;;;;;;11.48;70.40;100010.69;5025031;28;20029;-80
2021/05/05 10:27:01;;;;;;;8.98;2.90;;;;;;;11.53;67.74;100017.41;5023279;28;20099;-80
2021/05/05 10:29:28;;;;;;;13.15;2.95;;;;;;;11.58;68.19;100025.97;5004514;28;20037;-82
2021/05/05 10:32:00;;;;;;;8.25;2.97;;;;;;;11.39;69.07;100030.22;5011238;28;20083;-80
2021/05/05 10:34:28;;;;;;;9.27;2.83;;;;;;;11.31;68.59;100026.28;5019024;28;20356;-81
2021/05/05 10:36:55;;;;;;;4.97;2.28;;;;;;;11.44;68.16;100030.69;5023918;28;20057;-83
2021/05/05 10:39:21;;;;;;;4.70;2.50;;;;;;;11.49;68.57;100028.50;5001683;28;20048;-80
2021/05/05 10:41:59;;;;;;;6.40;1.88;;;;;;;11.40;67.43;100030.09;5026276;28;20052;-83
2021/05/05 10:44:43;;;;;;;8.77;2.15;;;;;;;11.24;66.36;100041.16;5024157;28;20036;-81
2021/05/05 10:47:20;;;;;;;11.82;2.72;;;;;;;11.00;65.13;100043.06;5009537;28;20045;-85
2021/05/05 10:49:58;;;;;;;7.53;2.20;;;;;;;10.92;67.73;100061.63;5016314;28;20030;-84
2021/05/05 10:52:24;;;;;;;8.25;2.58;;;;;;;11.15;68.46;100063.38;5011545;28;20038;-84
2021/05/05 10:54:51;;;;;;;12.65;2.45;;;;;;;11.27;65.95;100065.13;5013084;28;20033;-82
2021/05/05 10:57:18;;;;;;;13.00;2.47;;;;;;;11.25;64.84;100061.69;5010518;28;20033;-82
2021/05/05 11:00:12;;;;;;;7.72;2.28;;;;;;;11.75;68.19;100078.41;5026044;28;20329;-85
2021/05/05 11:02:40;;;;;;;7.28;1.90;;;;;;;11.90;66.65;100071.81;5017482;28;20049;-83
2021/05/05 11:05:07;;;;;;;9.07;2.55;;;;;;;12.23;65.47;100076.28;5022110;28;20112;-83
2021/05/05 11:07:55;;;;;;;14.35;2.67;;;;;;;12.12;62.28;100081.69;5024969;28;20395;-81
2021/05/05 11:10:36;;;;;;;13.57;2.08;;;;;;;11.49;62.67;100080.41;5022639;28;20041;-81
2021/05/05 11:13:25;;;;;;;12.52;2.50;;;;;;;11.14;66.92;100083.16;5021876;28;20033;-81
2021/05/05 11:15:50;;;;;;;9.95;1.80;;;;;;;10.83;69.05;100110.63;5016408;28;20522;-82
2021/05/05 11:18:25;;;;;;;10.55;2.20;;;;;;;10.40;69.47;100103.06;5024644;28;20060;-80
2021/05/05 11:20:54;;;;;;;4.93;1.52;;;;;;;10.33;67.78;100106.31;5007960;28;20052;-85
2021/05/05 11:23:35;;;;;;;7.40;1.83;;;;;;;10.59;69.43;100110.63;5010971;28;20041;-84
2021/05/05 11:26:26;;;;;;;8.38;1.92;;;;;;;11.33;70.36;100104.09;5009896;28;20072;-83
2021/05/05 11:28:59;;;;;;;8.52;1.80;;;;;;;11.91;66.35;100108.47;5023593;28;20045;-84
2021/05/05 11:31:47;;;;;;;20.35;2.20;;;;;;;12.10;64.74;100106.03;5024832;28;20045;-84
2021/05/05 11:34:22;;;;;;;20.13;2.30;;;;;;;11.89;63.50;100106.88;5007941;28;20041;-82
2021/05/05 11:37:04;;;;;;;11.57;2.22;;;;;;;11.76;63.99;100101.63;5019204;28;20045;-82